createdAt,value
2018-07-02T00:01:19.932Z,18.30
2018-07-02T00:03:48.867Z,18.30
2018-07-02T00:06:44.881Z,18.20
2018-07-02T00:09:13.748Z,18.20
2018-07-02T00:11:42.613Z,18.30
2018-07-02T00:14:11.510Z,18.30
2018-07-02T00:16:40.402Z,18.30
2018-07-02T00:19:09.247Z,18.20
2018-07-02T00:21:38.179Z,18.20
2018-07-02T00:24:07.089Z,18.20
2018-07-02T00:26:36.283Z,18.20
2018-07-02T00:29:05.186Z,18.20
2018-07-02T00:31:34.072Z,18.20
2018-07-02T00:34:02.929Z,18.20
2018-07-02T00:36:31.784Z,18.20
2018-07-02T00:43:58.187Z,18.20
2018-07-02T00:46:27.027Z,18.20
2018-07-02T00:48:55.898Z,18.20
2018-07-02T00:51:24.758Z,18.20
2018-07-02T00:53:53.699Z,18.20
2018-07-02T00:58:51.818Z,18.20
2018-07-02T01:01:21.267Z,18.20
2018-07-02T01:03:50.157Z,18.20
2018-07-02T01:06:19.016Z,18.20
2018-07-02T01:08:47.919Z,18.10
2018-07-02T01:11:16.785Z,18.10
2018-07-02T01:13:45.686Z,18.10
2018-07-02T01:16:14.643Z,18.10
2018-07-02T01:21:12.253Z,18.10
2018-07-02T01:23:41.496Z,18.10
2018-07-02T01:26:10.572Z,18.10
2018-07-02T01:28:39.452Z,18.10
2018-07-02T01:31:08.349Z,18.10
2018-07-02T01:33:37.190Z,18.00
2018-07-02T01:38:35.059Z,18.00
2018-07-02T01:43:33.206Z,18.00
2018-07-02T01:46:02.319Z,18.00
2018-07-02T01:48:31.170Z,18.00
2018-07-02T01:51:00.074Z,17.90
2018-07-02T01:53:28.963Z,18.00
2018-07-02T01:55:57.831Z,18.00
2018-07-02T01:58:26.647Z,18.00
2018-07-02T02:00:55.537Z,17.90
2018-07-02T02:03:24.382Z,17.90
2018-07-02T02:05:53.276Z,17.90
2018-07-02T02:08:22.244Z,17.90
2018-07-02T02:10:51.336Z,17.90
2018-07-02T02:13:20.215Z,17.90
2018-07-02T02:15:49.114Z,17.90
2018-07-02T02:18:17.999Z,17.80
2018-07-02T02:20:46.834Z,17.80
2018-07-02T02:23:15.748Z,17.80
2018-07-02T02:25:44.645Z,17.80
2018-07-02T02:28:13.506Z,17.80
2018-07-02T02:30:42.387Z,17.80
2018-07-02T02:33:11.251Z,17.80
2018-07-02T02:35:40.092Z,17.70
2018-07-02T02:38:08.951Z,17.80
2018-07-02T02:43:06.579Z,17.80
2018-07-02T02:45:35.507Z,17.80
2018-07-02T02:48:04.468Z,17.80
2018-07-02T02:50:33.371Z,17.80
2018-07-02T02:53:02.231Z,17.80
2018-07-02T02:55:31.148Z,17.80
2018-07-02T02:58:00.012Z,17.80
2018-07-02T03:00:28.924Z,17.80
2018-07-02T03:02:57.848Z,17.80
2018-07-02T03:07:55.484Z,17.80
2018-07-02T03:10:24.359Z,17.80
2018-07-02T03:12:53.236Z,17.90
2018-07-02T03:15:22.108Z,17.90
2018-07-02T03:20:19.766Z,17.80
2018-07-02T03:22:48.667Z,17.70
2018-07-02T03:27:46.386Z,17.70
2018-07-02T03:30:15.227Z,17.60
2018-07-02T03:32:44.081Z,17.70
2018-07-02T03:35:12.956Z,17.70
2018-07-02T03:37:41.851Z,17.70
2018-07-02T03:40:10.715Z,17.70
2018-07-02T03:42:39.612Z,17.80
2018-07-02T03:47:37.247Z,17.80
2018-07-02T03:50:06.307Z,17.80
2018-07-02T03:57:32.728Z,17.80
2018-07-02T04:02:30.367Z,17.80
2018-07-02T04:05:00.160Z,17.80
2018-07-02T04:07:29.383Z,17.80
2018-07-02T04:09:58.250Z,17.80
2018-07-02T04:12:27.114Z,17.80
2018-07-02T04:14:55.998Z,17.70
2018-07-02T04:17:24.872Z,17.80
2018-07-02T04:19:53.752Z,17.80
2018-07-02T04:22:22.962Z,17.80
2018-07-02T04:24:51.923Z,17.80
2018-07-02T04:27:20.751Z,17.70
2018-07-02T04:32:18.399Z,17.80
2018-07-02T04:34:47.287Z,17.80
2018-07-02T04:37:16.163Z,17.70
2018-07-02T04:39:45.078Z,17.80
2018-07-02T04:42:13.991Z,17.80
2018-07-02T04:44:42.843Z,17.80
2018-07-02T04:47:11.769Z,17.80
2018-07-02T04:49:40.695Z,17.90
2018-07-02T04:52:09.556Z,17.90
2018-07-02T04:59:35.984Z,18.00
2018-07-02T05:02:05.079Z,17.90
2018-07-02T05:04:33.970Z,17.90
2018-07-02T05:07:02.961Z,17.90
2018-07-02T05:09:31.819Z,17.80
2018-07-02T05:14:29.999Z,17.80
2018-07-02T05:19:34.558Z,17.90
2018-07-02T05:24:32.118Z,18.00
2018-07-02T05:27:00.948Z,18.00
2018-07-02T05:29:29.926Z,18.00
2018-07-02T05:31:58.776Z,17.90
2018-07-02T05:34:27.640Z,17.90
2018-07-02T05:36:56.463Z,17.90
2018-07-02T05:44:22.829Z,17.90
2018-07-02T05:46:51.676Z,17.90
2018-07-02T05:49:20.611Z,17.90
2018-07-02T05:51:49.472Z,18.00
2018-07-02T05:54:18.306Z,18.00
2018-07-02T05:56:47.212Z,18.00
2018-07-02T06:01:44.828Z,18.10
2018-07-02T06:04:13.768Z,18.10
2018-07-02T06:06:42.604Z,18.10
2018-07-02T06:09:12.300Z,18.10
2018-07-02T06:11:41.182Z,18.00
2018-07-02T06:14:10.808Z,18.00
2018-07-02T06:16:39.854Z,18.10
2018-07-02T06:19:08.886Z,18.10
2018-07-02T06:21:37.743Z,18.10
2018-07-02T06:24:06.779Z,18.10
2018-07-02T06:26:35.620Z,18.10
2018-07-02T06:29:04.574Z,18.10
2018-07-02T06:31:33.411Z,18.00
2018-07-02T06:34:02.239Z,18.10
2018-07-02T06:36:31.074Z,18.10
2018-07-02T06:38:59.893Z,18.10
2018-07-02T06:41:28.744Z,18.10
2018-07-02T06:43:57.620Z,18.20
2018-07-02T06:46:26.590Z,18.10
2018-07-02T06:48:55.407Z,18.10
2018-07-02T06:51:24.260Z,18.00
2018-07-02T06:53:53.212Z,18.00
2018-07-02T06:58:50.839Z,18.10
2018-07-02T07:01:19.648Z,18.10
2018-07-02T07:03:48.499Z,18.20
2018-07-02T07:06:17.330Z,18.20
2018-07-02T07:08:46.153Z,18.10
2018-07-02T07:11:15.009Z,18.20
2018-07-02T07:13:43.904Z,18.20
2018-07-02T07:16:12.740Z,18.20
2018-07-02T07:18:41.640Z,18.00
2018-07-02T07:21:10.447Z,18.00
2018-07-02T07:23:39.310Z,18.10
2018-07-02T07:28:36.883Z,18.20
2018-07-02T07:31:05.969Z,18.20
2018-07-02T07:33:34.808Z,18.20
2018-07-02T07:36:03.737Z,18.10
2018-07-02T07:38:32.877Z,18.20
2018-07-02T07:41:01.727Z,18.20
2018-07-02T07:43:30.587Z,18.30
2018-07-02T07:45:59.403Z,18.30
2018-07-02T07:48:28.553Z,18.30
2018-07-02T07:50:57.403Z,18.40
2018-07-02T07:53:26.264Z,18.40
2018-07-02T07:55:55.124Z,18.50
2018-07-02T07:58:23.990Z,18.40
2018-07-02T08:00:52.842Z,18.40
2018-07-02T08:03:21.747Z,18.40
2018-07-02T08:05:50.603Z,18.40
2018-07-02T08:08:19.440Z,18.50
2018-07-02T08:10:48.306Z,18.50
2018-07-02T08:13:17.479Z,18.60
2018-07-02T08:18:15.127Z,18.60
2018-07-02T08:20:44.006Z,18.70
2018-07-02T08:23:12.868Z,18.80
2018-07-02T08:28:10.436Z,18.70
2018-07-02T08:30:39.260Z,18.60
2018-07-02T08:33:08.229Z,18.70
2018-07-02T08:35:37.131Z,18.80
2018-07-02T08:38:06.252Z,18.80
2018-07-02T08:40:35.115Z,18.80
2018-07-02T08:43:04.027Z,18.80
2018-07-02T08:45:32.887Z,18.90
2018-07-02T08:48:01.697Z,18.90
2018-07-02T08:50:30.587Z,18.90
2018-07-02T08:52:59.410Z,19.00
2018-07-02T08:55:28.307Z,19.00
2018-07-02T08:57:57.371Z,19.00
2018-07-02T09:00:26.228Z,19.00
2018-07-02T09:02:55.167Z,19.00
2018-07-02T09:05:24.051Z,19.10
2018-07-02T09:07:52.890Z,19.10
2018-07-02T09:10:21.741Z,19.10
2018-07-02T09:12:50.584Z,19.20
2018-07-02T09:15:19.416Z,19.20
2018-07-02T09:17:48.256Z,19.30
2018-07-02T09:20:17.083Z,19.30
2018-07-02T09:22:45.916Z,19.30
2018-07-02T09:25:14.820Z,19.30
2018-07-02T09:27:43.648Z,19.30
2018-07-02T09:30:12.479Z,19.30
2018-07-02T09:32:41.358Z,19.30
2018-07-02T09:35:10.254Z,19.40
2018-07-02T09:37:39.128Z,19.40
2018-07-02T09:40:08.186Z,19.40
2018-07-02T09:42:36.857Z,19.50
2018-07-02T09:45:06.213Z,19.50
2018-07-02T09:47:35.043Z,19.60
2018-07-02T09:50:04.157Z,19.60
2018-07-02T09:52:32.920Z,19.70
2018-07-02T09:55:01.788Z,19.70
2018-07-02T09:57:30.648Z,19.80
2018-07-02T09:59:59.511Z,19.90
2018-07-02T10:04:57.171Z,20.00
2018-07-02T10:07:26.028Z,20.00
2018-07-02T10:09:54.890Z,20.10
2018-07-02T10:12:23.735Z,20.20
2018-07-02T10:14:53.048Z,20.20
2018-07-02T10:17:22.249Z,20.30
2018-07-02T10:19:51.108Z,20.30
2018-07-02T10:22:20.036Z,20.30
2018-07-02T10:27:17.611Z,20.30
2018-07-02T10:32:15.647Z,20.40
2018-07-02T10:34:45.107Z,20.50
2018-07-02T10:37:14.366Z,20.40
2018-07-02T10:39:43.404Z,20.50
2018-07-02T10:42:12.387Z,20.60
2018-07-02T10:47:10.728Z,20.60
2018-07-02T10:49:39.648Z,20.60
2018-07-02T10:54:37.731Z,20.80
2018-07-02T10:57:06.671Z,20.90
2018-07-02T10:59:35.522Z,21.00
2018-07-02T11:02:04.415Z,21.00
2018-07-02T11:07:02.060Z,21.00
2018-07-02T11:09:31.011Z,21.00
2018-07-02T11:11:59.901Z,21.10
2018-07-02T11:14:28.760Z,21.10
2018-07-02T11:16:57.700Z,21.20
2018-07-02T11:19:25.988Z,21.30
2018-07-02T11:21:54.863Z,21.30
2018-07-02T11:24:23.748Z,21.30
2018-07-02T11:26:52.596Z,21.30
2018-07-02T11:31:50.904Z,21.30
2018-07-02T11:34:20.155Z,21.30
2018-07-02T11:36:49.052Z,21.40
2018-07-02T11:39:17.888Z,21.50
2018-07-02T11:41:46.751Z,21.60
2018-07-02T11:44:15.622Z,21.80
2018-07-02T11:46:44.471Z,22.00
2018-07-02T11:51:42.246Z,22.30
2018-07-02T11:54:11.076Z,22.40
2018-07-02T11:56:39.954Z,22.40
2018-07-02T11:59:08.876Z,22.60
2018-07-02T12:01:37.724Z,22.60
2018-07-02T12:04:06.642Z,22.60
2018-07-02T12:06:36.225Z,22.60
2018-07-02T12:09:08.184Z,22.70
2018-07-02T12:14:06.020Z,23.10
2018-07-02T12:16:35.071Z,23.00
2018-07-02T12:19:03.947Z,23.20
2018-07-02T12:21:33.296Z,23.40
2018-07-02T12:24:02.171Z,23.80
2018-07-02T12:26:31.020Z,23.80
2018-07-02T12:28:59.879Z,23.60
2018-07-02T12:31:28.700Z,23.70
2018-07-02T12:33:57.723Z,23.60
2018-07-02T12:36:27.002Z,23.70
2018-07-02T12:38:55.927Z,23.70
2018-07-02T12:41:24.771Z,23.90
2018-07-02T12:43:53.700Z,24.00
2018-07-02T12:46:22.552Z,24.00
2018-07-02T12:48:51.411Z,24.30
2018-07-02T12:51:20.671Z,24.70
2018-07-02T12:53:49.502Z,25.10
2018-07-02T12:56:18.376Z,24.90
2018-07-02T12:58:47.195Z,24.90
2018-07-02T13:03:44.779Z,25.00
2018-07-02T13:08:42.363Z,25.00
2018-07-02T13:11:11.282Z,25.50
2018-07-02T13:13:40.148Z,25.60
2018-07-02T13:16:09.035Z,25.50
2018-07-02T13:18:37.895Z,25.30
2018-07-02T13:21:06.940Z,25.20
2018-07-02T13:26:04.666Z,25.30
2018-07-02T13:28:33.563Z,25.30
2018-07-02T13:31:02.656Z,25.60
2018-07-02T13:33:31.514Z,25.90
2018-07-02T13:36:00.579Z,26.10
2018-07-02T13:38:29.721Z,26.20
2018-07-02T13:40:58.567Z,26.20
2018-07-02T13:45:56.238Z,26.50
2018-07-02T13:48:25.143Z,26.50
2018-07-02T13:50:54.054Z,26.40
2018-07-02T13:53:22.960Z,26.40
2018-07-02T13:55:51.776Z,26.60
2018-07-02T13:58:20.725Z,26.50
2018-07-02T14:00:49.606Z,26.40
2018-07-02T14:03:18.464Z,26.40
2018-07-02T14:05:47.325Z,26.60
2018-07-02T14:08:16.172Z,26.70
2018-07-02T14:10:44.992Z,26.80
2018-07-02T14:13:13.820Z,26.90
2018-07-02T14:18:11.440Z,26.80
2018-07-02T14:20:40.324Z,26.70
2018-07-02T14:23:09.259Z,26.70
2018-07-02T14:25:38.141Z,26.70
2018-07-02T14:28:06.995Z,26.70
2018-07-02T14:30:35.850Z,26.70
2018-07-02T14:35:33.596Z,26.70
2018-07-02T14:38:02.688Z,26.60
2018-07-02T14:40:31.585Z,26.60
2018-07-02T14:43:00.927Z,26.50
2018-07-02T14:47:58.740Z,26.30
2018-07-02T14:50:27.587Z,26.20
2018-07-02T14:52:56.465Z,26.20
2018-07-02T15:00:23.050Z,26.00
2018-07-02T15:02:51.902Z,25.90
2018-07-02T15:05:20.791Z,25.70
2018-07-02T15:07:49.980Z,25.50
2018-07-02T15:10:18.818Z,25.30
2018-07-02T15:12:47.723Z,25.30
2018-07-02T15:15:16.555Z,25.40
2018-07-02T15:17:45.378Z,25.50
2018-07-02T15:20:14.241Z,25.50
2018-07-02T15:22:44.192Z,25.40
2018-07-02T15:25:13.043Z,25.30
2018-07-02T15:27:41.914Z,25.40
2018-07-02T15:30:10.769Z,25.50
2018-07-02T15:35:08.398Z,25.00
2018-07-02T15:37:37.277Z,25.10
2018-07-02T15:40:06.266Z,25.20
2018-07-02T15:42:35.268Z,25.30
2018-07-02T15:45:04.172Z,25.20
2018-07-02T15:47:33.054Z,25.30
2018-07-02T15:50:01.879Z,25.40
2018-07-02T15:54:59.519Z,25.20
2018-07-02T15:57:28.631Z,25.10
2018-07-02T15:59:57.486Z,25.10
2018-07-02T16:02:26.353Z,25.00
2018-07-02T16:04:55.147Z,24.90
2018-07-02T16:07:24.005Z,25.00
2018-07-02T16:09:52.848Z,24.80
2018-07-02T16:12:21.791Z,24.90
2018-07-02T16:14:50.627Z,24.80
2018-07-02T16:17:19.493Z,24.80
2018-07-02T16:19:55.324Z,24.70
2018-07-02T16:24:52.967Z,24.50
2018-07-02T16:27:21.817Z,24.30
2018-07-02T16:29:50.687Z,24.30
2018-07-02T16:32:19.581Z,24.30
2018-07-02T16:34:48.447Z,24.30
2018-07-02T16:37:17.322Z,24.40
2018-07-02T16:39:46.637Z,24.40
2018-07-02T16:42:17.269Z,24.50
2018-07-02T16:44:48.841Z,24.30
2018-07-02T16:47:18.092Z,24.20
2018-07-02T16:52:16.612Z,24.30
2018-07-02T16:54:45.548Z,24.30
2018-07-02T16:57:14.764Z,24.00
2018-07-02T16:59:43.806Z,23.80
2018-07-02T17:02:12.714Z,23.70
2018-07-02T17:04:41.604Z,23.80
2018-07-02T17:07:10.506Z,23.70
2018-07-02T17:09:39.402Z,23.70
2018-07-02T17:12:08.383Z,23.70
2018-07-02T17:17:05.985Z,23.70
2018-07-02T17:19:34.847Z,23.60
2018-07-02T17:22:03.831Z,23.70
2018-07-02T17:24:32.687Z,23.60
2018-07-02T17:27:01.526Z,23.70
2018-07-02T17:29:30.396Z,23.70
2018-07-02T17:31:59.307Z,23.70
2018-07-02T17:36:57.010Z,23.80
2018-07-02T17:39:26.482Z,23.90
2018-07-02T17:41:55.691Z,23.90
2018-07-02T17:44:25.051Z,23.80
2018-07-02T17:46:54.203Z,23.70
2018-07-02T17:49:23.987Z,23.50
2018-07-02T17:51:52.981Z,23.50
2018-07-02T17:54:22.192Z,23.60
2018-07-02T17:56:51.439Z,23.60
2018-07-02T17:59:20.754Z,23.70
2018-07-02T18:01:49.684Z,23.60
2018-07-02T18:04:19.422Z,23.60
2018-07-02T18:06:48.355Z,23.60
2018-07-02T18:09:17.224Z,23.60
2018-07-02T18:11:47.167Z,23.60
2018-07-02T18:14:16.063Z,23.50
2018-07-02T18:16:44.875Z,23.50
2018-07-02T18:19:13.744Z,23.50
2018-07-02T18:21:44.580Z,23.50
2018-07-02T18:24:14.148Z,23.50
2018-07-02T18:26:43.190Z,23.40
2018-07-02T18:29:12.148Z,23.40
2018-07-02T18:31:41.104Z,23.40
2018-07-02T18:34:09.997Z,23.30
2018-07-02T18:36:38.915Z,23.30
2018-07-02T18:39:10.285Z,23.20
2018-07-02T18:41:40.492Z,23.20
2018-07-02T18:44:09.355Z,23.20
2018-07-02T18:46:38.296Z,23.10
2018-07-02T18:49:07.905Z,23.10
2018-07-02T18:51:36.796Z,23.10
2018-07-02T18:54:06.672Z,23.10
2018-07-02T18:56:35.939Z,23.10
2018-07-02T18:59:05.231Z,23.10
2018-07-02T19:01:34.136Z,23.10
2018-07-02T19:04:02.979Z,23.10
2018-07-02T19:06:31.828Z,23.00
2018-07-02T19:09:01.373Z,23.00
2018-07-02T19:11:30.326Z,22.90
2018-07-02T19:13:59.746Z,22.90
2018-07-02T19:16:29.045Z,22.90
2018-07-02T19:18:57.899Z,22.90
2018-07-02T19:21:26.786Z,23.00
2018-07-02T19:23:55.713Z,22.80
2018-07-02T19:28:53.342Z,22.80
2018-07-02T19:31:22.231Z,22.70
2018-07-02T19:33:51.978Z,22.70
2018-07-02T19:36:20.885Z,22.70
2018-07-02T19:38:49.781Z,22.70
2018-07-02T19:41:19.215Z,22.60
2018-07-02T19:43:48.079Z,22.60
2018-07-02T19:46:16.988Z,22.60
2018-07-02T19:48:45.883Z,22.50
2018-07-02T19:51:15.731Z,22.50
2018-07-02T19:53:45.299Z,22.50
2018-07-02T19:56:14.335Z,22.50
2018-07-02T19:58:43.207Z,22.50
2018-07-02T20:01:12.252Z,22.50
2018-07-02T20:03:41.160Z,22.40
2018-07-02T20:06:10.025Z,22.40
2018-07-02T20:08:41.851Z,22.30
2018-07-02T20:11:10.743Z,22.40
2018-07-02T20:13:41.445Z,22.30
2018-07-02T20:16:10.338Z,22.30
2018-07-02T20:21:08.995Z,22.30
2018-07-02T20:23:38.232Z,22.20
2018-07-02T20:26:07.433Z,22.20
2018-07-02T20:28:36.328Z,22.20
2018-07-02T20:31:05.817Z,22.20
2018-07-02T20:33:34.760Z,22.20
2018-07-02T20:36:03.721Z,22.10
2018-07-02T20:38:32.554Z,22.10
2018-07-02T20:41:02.228Z,22.10
2018-07-02T20:43:31.175Z,22.10
2018-07-02T20:46:00.157Z,22.10
2018-07-02T20:48:29.420Z,22.10
2018-07-02T20:50:58.708Z,22.10
2018-07-02T20:53:27.718Z,22.10
2018-07-02T20:55:57.416Z,22.10
2018-07-02T20:58:26.787Z,22.10
2018-07-02T21:00:55.696Z,22.10
2018-07-02T21:05:53.429Z,22.10
2018-07-02T21:08:22.273Z,22.10
2018-07-02T21:10:51.161Z,22.10
2018-07-02T21:13:20.015Z,22.00
2018-07-02T21:15:48.869Z,22.00
2018-07-02T21:20:46.475Z,22.00
2018-07-02T21:23:15.387Z,22.00
2018-07-02T21:25:44.299Z,22.00
2018-07-02T21:30:41.886Z,21.80
2018-07-02T21:33:10.768Z,21.90
2018-07-02T21:35:39.634Z,21.90
2018-07-02T21:38:08.500Z,21.90
2018-07-02T21:40:37.376Z,21.90
2018-07-02T21:43:06.268Z,21.90
2018-07-02T21:45:40.018Z,21.90
2018-07-02T21:48:08.866Z,21.90
2018-07-02T21:50:37.838Z,21.90
2018-07-02T21:53:06.722Z,21.80
2018-07-02T21:55:35.663Z,21.80
2018-07-02T21:58:04.722Z,21.80
2018-07-02T22:03:07.448Z,21.70
2018-07-02T22:05:36.323Z,21.70
2018-07-02T22:08:05.447Z,21.70
2018-07-02T22:10:34.395Z,21.70
2018-07-02T22:13:03.739Z,21.70
2018-07-02T22:15:32.614Z,21.70
2018-07-02T22:18:01.495Z,21.70
2018-07-02T22:22:59.054Z,21.70
2018-07-02T22:25:27.961Z,21.60
2018-07-02T22:27:56.777Z,21.70
2018-07-02T22:30:25.635Z,21.60
2018-07-02T22:32:54.510Z,21.60
2018-07-02T22:35:23.354Z,21.60
2018-07-02T22:37:52.186Z,21.60
2018-07-02T22:40:21.032Z,21.60
2018-07-02T22:42:49.915Z,21.60
2018-07-02T22:45:18.751Z,21.60
2018-07-02T22:50:16.360Z,21.50
2018-07-02T22:52:45.190Z,21.50
2018-07-02T22:55:14.035Z,21.50
2018-07-02T22:57:42.879Z,21.50
2018-07-02T23:00:11.963Z,21.50
2018-07-02T23:02:40.949Z,21.50
2018-07-02T23:05:09.794Z,21.50
2018-07-02T23:07:38.659Z,21.50
2018-07-02T23:12:36.319Z,21.40
2018-07-02T23:15:05.183Z,21.30
2018-07-02T23:17:34.044Z,21.30
2018-07-02T23:20:02.911Z,21.30
2018-07-02T23:25:09.794Z,21.30
2018-07-02T23:27:38.618Z,21.30
2018-07-02T23:30:07.487Z,21.30
2018-07-02T23:32:36.566Z,21.30
2018-07-02T23:35:05.467Z,21.30
2018-07-02T23:37:34.307Z,21.20
2018-07-02T23:40:03.251Z,21.20
2018-07-02T23:42:32.107Z,21.20
2018-07-02T23:45:00.931Z,21.20
2018-07-02T23:47:29.755Z,21.20
2018-07-02T23:49:58.615Z,21.20
2018-07-02T23:52:27.458Z,21.20
2018-07-02T23:54:56.270Z,21.20
2018-07-02T23:57:25.139Z,21.20
2018-07-02T23:59:53.987Z,21.20
